CYYQ

Churchill Airport

Churchill, Manitoba, Canada
METAR CYYQ 092100Z 17010KT 15SM SCT110 BKN170 M15/M17 A2995 RMK AC3AC4 SLP148
Observed Flight Rules
Dec-9 @ 21:00 UTC (39 minutes ago) Visual Flight Rules
Wind Visibility Clouds
170° at 10 knots 15 miles
  • Scattered at 11,000' AGL
  • Broken at 17,000' AGL
Temperatures Readings
Current -15°C / 5°F
Dewpoint -17°C / 1°F
Humidity 85%
Altimeter 29.95" Hg
Pressure 1014.8 hPa
Elevation 29
METAR CYYQ 092100Z 17010KT 15SM SCT110 BKN170 M15/M17 A2995 RMK AC3AC4 SLP148
Observed Flight Rules
Dec-9 @ 21:00 UTC
(39 minutes ago)
VFR
Wind Visibility
170° at 10 knots 15 miles
Clouds
  • Scattered at 11,000' AGL
  • Broken at 17,000' AGL
Temperature Dewpoint
-15°C / 5°F -17°C / 1°F
Humidity Altimeter Pressure
85% 29.95" Hg 1014.8 hPa